sensor_id;sensor_type;location;lat;lon;timestamp;P1;durP1;ratioP1;P2;durP2;ratioP2
17153;SDS011;8692;52.164;7.558;2024-01-27T00:01:27;12.87;;;3.20;;
17153;SDS011;8692;52.164;7.558;2024-01-27T00:03:55;9.43;;;3.07;;
17153;SDS011;8692;52.164;7.558;2024-01-27T00:06:24;11.73;;;3.23;;
17153;SDS011;8692;52.164;7.558;2024-01-27T00:08:52;12.67;;;3.40;;
17153;SDS011;8692;52.164;7.558;2024-01-27T00:11:20;10.07;;;3.30;;
17153;SDS011;8692;52.164;7.558;2024-01-27T00:13:53;18.47;;;3.97;;
17153;SDS011;8692;52.164;7.558;2024-01-27T00:16:21;14.80;;;3.60;;
17153;SDS011;8692;52.164;7.558;2024-01-27T00:18:49;17.50;;;3.30;;
17153;SDS011;8692;52.164;7.558;2024-01-27T00:21:17;13.17;;;2.87;;
17153;SDS011;8692;52.164;7.558;2024-01-27T00:23:46;13.10;;;3.67;;
17153;SDS011;8692;52.164;7.558;2024-01-27T00:26:15;11.17;;;3.00;;
17153;SDS011;8692;52.164;7.558;2024-01-27T00:28:43;7.07;;;2.17;;
17153;SDS011;8692;52.164;7.558;2024-01-27T00:31:11;11.47;;;3.00;;
17153;SDS011;8692;52.164;7.558;2024-01-27T00:33:39;15.50;;;3.80;;
17153;SDS011;8692;52.164;7.558;2024-01-27T00:36:07;7.67;;;2.57;;
17153;SDS011;8692;52.164;7.558;2024-01-27T00:38:35;11.93;;;3.17;;
17153;SDS011;8692;52.164;7.558;2024-01-27T00:41:06;16.13;;;3.17;;
17153;SDS011;8692;52.164;7.558;2024-01-27T00:43:36;11.60;;;3.50;;
17153;SDS011;8692;52.164;7.558;2024-01-27T00:46:04;9.63;;;3.10;;
17153;SDS011;8692;52.164;7.558;2024-01-27T00:48:32;11.30;;;4.03;;
17153;SDS011;8692;52.164;7.558;2024-01-27T00:51:00;22.20;;;3.97;;
17153;SDS011;8692;52.164;7.558;2024-01-27T00:53:28;13.30;;;2.43;;
17153;SDS011;8692;52.164;7.558;2024-01-27T00:55:55;13.10;;;3.00;;
17153;SDS011;8692;52.164;7.558;2024-01-27T00:58:24;8.97;;;2.17;;
17153;SDS011;8692;52.164;7.558;2024-01-27T01:00:52;12.90;;;2.63;;
17153;SDS011;8692;52.164;7.558;2024-01-27T01:03:20;20.97;;;3.77;;
17153;SDS011;8692;52.164;7.558;2024-01-27T01:05:48;11.90;;;3.00;;
17153;SDS011;8692;52.164;7.558;2024-01-27T01:08:16;13.80;;;3.13;;
17153;SDS011;8692;52.164;7.558;2024-01-27T01:10:44;8.77;;;2.53;;
17153;SDS011;8692;52.164;7.558;2024-01-27T01:13:12;14.20;;;4.47;;
17153;SDS011;8692;52.164;7.558;2024-01-27T01:15:42;5.97;;;2.27;;
17153;SDS011;8692;52.164;7.558;2024-01-27T01:18:10;12.93;;;2.67;;
17153;SDS011;8692;52.164;7.558;2024-01-27T01:20:38;15.77;;;3.17;;
17153;SDS011;8692;52.164;7.558;2024-01-27T01:23:07;12.77;;;2.73;;
17153;SDS011;8692;52.164;7.558;2024-01-27T01:25:34;8.57;;;2.40;;
17153;SDS011;8692;52.164;7.558;2024-01-27T01:28:03;12.77;;;3.07;;
17153;SDS011;8692;52.164;7.558;2024-01-27T01:30:31;14.53;;;2.83;;
17153;SDS011;8692;52.164;7.558;2024-01-27T01:33:00;13.33;;;2.50;;
17153;SDS011;8692;52.164;7.558;2024-01-27T01:35:28;6.83;;;2.30;;
17153;SDS011;8692;52.164;7.558;2024-01-27T01:37:56;6.70;;;2.30;;
17153;SDS011;8692;52.164;7.558;2024-01-27T01:40:24;7.97;;;3.17;;
17153;SDS011;8692;52.164;7.558;2024-01-27T01:42:52;10.47;;;2.33;;
17153;SDS011;8692;52.164;7.558;2024-01-27T01:45:20;12.30;;;4.10;;
17153;SDS011;8692;52.164;7.558;2024-01-27T01:47:48;12.17;;;2.97;;
17153;SDS011;8692;52.164;7.558;2024-01-27T01:50:18;11.40;;;3.30;;
17153;SDS011;8692;52.164;7.558;2024-01-27T01:52:47;11.70;;;3.17;;
17153;SDS011;8692;52.164;7.558;2024-01-27T01:55:16;8.40;;;2.63;;
17153;SDS011;8692;52.164;7.558;2024-01-27T01:57:44;15.30;;;3.37;;
17153;SDS011;8692;52.164;7.558;2024-01-27T02:00:13;10.27;;;3.10;;
17153;SDS011;8692;52.164;7.558;2024-01-27T02:02:42;12.53;;;3.77;;
17153;SDS011;8692;52.164;7.558;2024-01-27T02:05:11;8.23;;;3.07;;
17153;SDS011;8692;52.164;7.558;2024-01-27T02:07:42;16.17;;;3.77;;
17153;SDS011;8692;52.164;7.558;2024-01-27T02:10:12;8.77;;;2.33;;
17153;SDS011;8692;52.164;7.558;2024-01-27T02:12:41;10.87;;;2.97;;
17153;SDS011;8692;52.164;7.558;2024-01-27T02:15:10;13.87;;;3.67;;
17153;SDS011;8692;52.164;7.558;2024-01-27T02:17:40;18.17;;;5.50;;
17153;SDS011;8692;52.164;7.558;2024-01-27T02:20:09;15.60;;;3.57;;
17153;SDS011;8692;52.164;7.558;2024-01-27T02:22:37;9.13;;;3.73;;
17153;SDS011;8692;52.164;7.558;2024-01-27T02:25:07;9.67;;;2.93;;
17153;SDS011;8692;52.164;7.558;2024-01-27T02:27:35;13.90;;;3.93;;
17153;SDS011;8692;52.164;7.558;2024-01-27T02:30:04;11.63;;;4.40;;
17153;SDS011;8692;52.164;7.558;2024-01-27T02:32:33;12.80;;;3.97;;
17153;SDS011;8692;52.164;7.558;2024-01-27T02:35:01;13.93;;;4.07;;
17153;SDS011;8692;52.164;7.558;2024-01-27T02:37:29;13.23;;;4.33;;
17153;SDS011;8692;52.164;7.558;2024-01-27T02:39:57;8.20;;;3.43;;
17153;SDS011;8692;52.164;7.558;2024-01-27T02:42:26;11.50;;;3.50;;
17153;SDS011;8692;52.164;7.558;2024-01-27T02:44:54;10.03;;;3.30;;
17153;SDS011;8692;52.164;7.558;2024-01-27T02:47:22;11.40;;;3.97;;
17153;SDS011;8692;52.164;7.558;2024-01-27T02:49:50;20.33;;;4.70;;
17153;SDS011;8692;52.164;7.558;2024-01-27T02:52:19;8.43;;;2.63;;
17153;SDS011;8692;52.164;7.558;2024-01-27T02:54:47;10.20;;;3.43;;
17153;SDS011;8692;52.164;7.558;2024-01-27T02:57:15;16.83;;;4.07;;
17153;SDS011;8692;52.164;7.558;2024-01-27T02:59:46;10.63;;;3.10;;
17153;SDS011;8692;52.164;7.558;2024-01-27T03:02:14;9.83;;;2.97;;
17153;SDS011;8692;52.164;7.558;2024-01-27T03:04:42;11.83;;;3.03;;
17153;SDS011;8692;52.164;7.558;2024-01-27T03:07:10;13.80;;;3.50;;
17153;SDS011;8692;52.164;7.558;2024-01-27T03:09:38;14.87;;;2.73;;
17153;SDS011;8692;52.164;7.558;2024-01-27T03:12:06;12.03;;;3.50;;
17153;SDS011;8692;52.164;7.558;2024-01-27T03:14:35;13.60;;;3.43;;
17153;SDS011;8692;52.164;7.558;2024-01-27T03:17:04;13.50;;;3.57;;
17153;SDS011;8692;52.164;7.558;2024-01-27T03:19:33;14.57;;;3.93;;
17153;SDS011;8692;52.164;7.558;2024-01-27T03:22:01;11.63;;;3.20;;
17153;SDS011;8692;52.164;7.558;2024-01-27T03:24:29;13.97;;;2.90;;
17153;SDS011;8692;52.164;7.558;2024-01-27T03:26:57;12.73;;;3.43;;
17153;SDS011;8692;52.164;7.558;2024-01-27T03:29:25;11.00;;;3.60;;
17153;SDS011;8692;52.164;7.558;2024-01-27T03:31:54;12.03;;;4.47;;
17153;SDS011;8692;52.164;7.558;2024-01-27T03:34:23;11.00;;;2.93;;
17153;SDS011;8692;52.164;7.558;2024-01-27T03:36:53;5.73;;;2.87;;
17153;SDS011;8692;52.164;7.558;2024-01-27T03:39:21;11.37;;;3.20;;
17153;SDS011;8692;52.164;7.558;2024-01-27T03:41:50;7.67;;;2.80;;
17153;SDS011;8692;52.164;7.558;2024-01-27T03:44:18;22.83;;;4.33;;
17153;SDS011;8692;52.164;7.558;2024-01-27T03:46:46;13.53;;;3.23;;
17153;SDS011;8692;52.164;7.558;2024-01-27T03:49:14;14.03;;;4.37;;
17153;SDS011;8692;52.164;7.558;2024-01-27T03:51:44;12.13;;;3.93;;
17153;SDS011;8692;52.164;7.558;2024-01-27T03:54:12;10.77;;;3.53;;
17153;SDS011;8692;52.164;7.558;2024-01-27T03:56:40;8.97;;;3.37;;
17153;SDS011;8692;52.164;7.558;2024-01-27T03:59:08;11.87;;;3.53;;
17153;SDS011;8692;52.164;7.558;2024-01-27T04:01:37;14.37;;;3.37;;
17153;SDS011;8692;52.164;7.558;2024-01-27T04:04:05;13.57;;;3.13;;
17153;SDS011;8692;52.164;7.558;2024-01-27T04:06:36;9.83;;;3.20;;
17153;SDS011;8692;52.164;7.558;2024-01-27T04:09:06;11.57;;;3.57;;
17153;SDS011;8692;52.164;7.558;2024-01-27T04:11:35;8.70;;;3.13;;
17153;SDS011;8692;52.164;7.558;2024-01-27T04:14:03;11.37;;;4.13;;
17153;SDS011;8692;52.164;7.558;2024-01-27T04:16:32;14.07;;;3.97;;
17153;SDS011;8692;52.164;7.558;2024-01-27T04:19:00;12.63;;;4.10;;
17153;SDS011;8692;52.164;7.558;2024-01-27T04:21:28;10.60;;;3.13;;
17153;SDS011;8692;52.164;7.558;2024-01-27T04:23:56;13.60;;;3.60;;
17153;SDS011;8692;52.164;7.558;2024-01-27T04:26:25;8.43;;;3.57;;
17153;SDS011;8692;52.164;7.558;2024-01-27T04:28:53;7.10;;;2.87;;
17153;SDS011;8692;52.164;7.558;2024-01-27T04:31:21;8.83;;;3.17;;
17153;SDS011;8692;52.164;7.558;2024-01-27T04:33:49;6.93;;;3.33;;
17153;SDS011;8692;52.164;7.558;2024-01-27T04:36:24;12.10;;;3.77;;
17153;SDS011;8692;52.164;7.558;2024-01-27T04:38:53;8.93;;;4.33;;
17153;SDS011;8692;52.164;7.558;2024-01-27T04:41:21;7.43;;;3.70;;
17153;SDS011;8692;52.164;7.558;2024-01-27T04:43:51;9.43;;;3.80;;
17153;SDS011;8692;52.164;7.558;2024-01-27T04:46:19;10.80;;;3.30;;
17153;SDS011;8692;52.164;7.558;2024-01-27T04:48:47;5.80;;;3.03;;
17153;SDS011;8692;52.164;7.558;2024-01-27T04:51:15;9.10;;;3.80;;
17153;SDS011;8692;52.164;7.558;2024-01-27T04:53:43;10.53;;;3.97;;
17153;SDS011;8692;52.164;7.558;2024-01-27T04:56:11;9.17;;;4.13;;
17153;SDS011;8692;52.164;7.558;2024-01-27T04:58:40;9.40;;;3.33;;
17153;SDS011;8692;52.164;7.558;2024-01-27T05:01:09;6.30;;;3.57;;
17153;SDS011;8692;52.164;7.558;2024-01-27T05:03:37;8.90;;;3.80;;
17153;SDS011;8692;52.164;7.558;2024-01-27T05:06:07;7.53;;;3.23;;
17153;SDS011;8692;52.164;7.558;2024-01-27T05:08:35;8.30;;;3.47;;
17153;SDS011;8692;52.164;7.558;2024-01-27T05:11:04;11.70;;;4.57;;
17153;SDS011;8692;52.164;7.558;2024-01-27T05:13:32;15.20;;;4.83;;
17153;SDS011;8692;52.164;7.558;2024-01-27T05:15:59;6.87;;;4.37;;
17153;SDS011;8692;52.164;7.558;2024-01-27T05:18:29;11.03;;;4.30;;
17153;SDS011;8692;52.164;7.558;2024-01-27T05:20:57;6.63;;;3.77;;
17153;SDS011;8692;52.164;7.558;2024-01-27T05:23:25;14.37;;;4.00;;
17153;SDS011;8692;52.164;7.558;2024-01-27T05:25:53;8.60;;;3.73;;
17153;SDS011;8692;52.164;7.558;2024-01-27T05:28:21;12.90;;;4.07;;
17153;SDS011;8692;52.164;7.558;2024-01-27T05:30:49;7.37;;;3.57;;
17153;SDS011;8692;52.164;7.558;2024-01-27T05:33:17;8.00;;;3.50;;
17153;SDS011;8692;52.164;7.558;2024-01-27T05:35:46;5.97;;;3.43;;
17153;SDS011;8692;52.164;7.558;2024-01-27T05:38:14;4.20;;;3.27;;
17153;SDS011;8692;52.164;7.558;2024-01-27T05:40:42;8.33;;;4.20;;
17153;SDS011;8692;52.164;7.558;2024-01-27T05:43:11;8.13;;;3.57;;
17153;SDS011;8692;52.164;7.558;2024-01-27T05:45:39;10.87;;;3.83;;
17153;SDS011;8692;52.164;7.558;2024-01-27T05:48:07;13.73;;;5.17;;
17153;SDS011;8692;52.164;7.558;2024-01-27T05:50:35;15.83;;;4.47;;
17153;SDS011;8692;52.164;7.558;2024-01-27T05:53:05;15.17;;;4.07;;
17153;SDS011;8692;52.164;7.558;2024-01-27T05:55:32;9.07;;;4.03;;
17153;SDS011;8692;52.164;7.558;2024-01-27T05:58:01;6.83;;;3.97;;
17153;SDS011;8692;52.164;7.558;2024-01-27T06:00:29;11.57;;;4.57;;
17153;SDS011;8692;52.164;7.558;2024-01-27T06:02:57;8.50;;;3.70;;
17153;SDS011;8692;52.164;7.558;2024-01-27T06:05:25;10.00;;;3.60;;
17153;SDS011;8692;52.164;7.558;2024-01-27T06:07:53;8.63;;;4.03;;
17153;SDS011;8692;52.164;7.558;2024-01-27T06:10:22;12.03;;;4.33;;
17153;SDS011;8692;52.164;7.558;2024-01-27T06:12:51;8.03;;;3.90;;
17153;SDS011;8692;52.164;7.558;2024-01-27T06:15:19;9.57;;;4.27;;
17153;SDS011;8692;52.164;7.558;2024-01-27T06:17:47;11.80;;;4.93;;
17153;SDS011;8692;52.164;7.558;2024-01-27T06:20:15;12.43;;;4.60;;
17153;SDS011;8692;52.164;7.558;2024-01-27T06:22:45;11.20;;;4.47;;
17153;SDS011;8692;52.164;7.558;2024-01-27T06:25:13;8.30;;;4.47;;
17153;SDS011;8692;52.164;7.558;2024-01-27T06:27:44;11.60;;;4.63;;
17153;SDS011;8692;52.164;7.558;2024-01-27T06:30:12;15.27;;;4.67;;
17153;SDS011;8692;52.164;7.558;2024-01-27T06:32:41;13.20;;;5.00;;
17153;SDS011;8692;52.164;7.558;2024-01-27T06:35:09;14.53;;;5.20;;
17153;SDS011;8692;52.164;7.558;2024-01-27T06:37:38;15.60;;;4.80;;
17153;SDS011;8692;52.164;7.558;2024-01-27T06:40:06;10.73;;;5.23;;
17153;SDS011;8692;52.164;7.558;2024-01-27T06:42:35;10.93;;;5.70;;
17153;SDS011;8692;52.164;7.558;2024-01-27T06:45:05;11.77;;;5.27;;
17153;SDS011;8692;52.164;7.558;2024-01-27T06:47:34;12.03;;;5.17;;
17153;SDS011;8692;52.164;7.558;2024-01-27T06:50:02;13.60;;;5.23;;
17153;SDS011;8692;52.164;7.558;2024-01-27T06:52:30;11.80;;;5.67;;
17153;SDS011;8692;52.164;7.558;2024-01-27T06:54:58;10.17;;;4.73;;
17153;SDS011;8692;52.164;7.558;2024-01-27T06:57:26;12.77;;;5.70;;
17153;SDS011;8692;52.164;7.558;2024-01-27T06:59:54;10.50;;;4.40;;
17153;SDS011;8692;52.164;7.558;2024-01-27T07:02:24;12.33;;;4.93;;
17153;SDS011;8692;52.164;7.558;2024-01-27T07:04:53;18.37;;;5.83;;
17153;SDS011;8692;52.164;7.558;2024-01-27T07:07:22;13.73;;;5.57;;
17153;SDS011;8692;52.164;7.558;2024-01-27T07:09:52;12.00;;;5.80;;
17153;SDS011;8692;52.164;7.558;2024-01-27T07:12:21;11.97;;;5.77;;
17153;SDS011;8692;52.164;7.558;2024-01-27T07:14:50;13.33;;;5.77;;
17153;SDS011;8692;52.164;7.558;2024-01-27T07:17:24;10.53;;;5.00;;
17153;SDS011;8692;52.164;7.558;2024-01-27T07:19:52;14.07;;;5.60;;
17153;SDS011;8692;52.164;7.558;2024-01-27T07:22:20;18.10;;;7.53;;
17153;SDS011;8692;52.164;7.558;2024-01-27T07:24:50;9.53;;;5.37;;
17153;SDS011;8692;52.164;7.558;2024-01-27T07:27:18;18.13;;;6.27;;
17153;SDS011;8692;52.164;7.558;2024-01-27T07:29:46;15.83;;;5.90;;
17153;SDS011;8692;52.164;7.558;2024-01-27T07:32:14;15.87;;;6.90;;
17153;SDS011;8692;52.164;7.558;2024-01-27T07:34:44;11.57;;;5.97;;
17153;SDS011;8692;52.164;7.558;2024-01-27T07:37:12;18.17;;;5.87;;
17153;SDS011;8692;52.164;7.558;2024-01-27T07:39:40;10.70;;;5.50;;
17153;SDS011;8692;52.164;7.558;2024-01-27T07:42:08;11.33;;;6.40;;
17153;SDS011;8692;52.164;7.558;2024-01-27T07:44:36;13.97;;;6.17;;
17153;SDS011;8692;52.164;7.558;2024-01-27T07:47:04;11.70;;;6.30;;
17153;SDS011;8692;52.164;7.558;2024-01-27T07:49:32;17.80;;;6.80;;
17153;SDS011;8692;52.164;7.558;2024-01-27T07:52:01;11.60;;;6.53;;
17153;SDS011;8692;52.164;7.558;2024-01-27T07:54:29;12.77;;;6.63;;
17153;SDS011;8692;52.164;7.558;2024-01-27T07:56:59;13.77;;;6.27;;
17153;SDS011;8692;52.164;7.558;2024-01-27T07:59:27;15.53;;;7.00;;
17153;SDS011;8692;52.164;7.558;2024-01-27T08:01:55;14.00;;;6.67;;
17153;SDS011;8692;52.164;7.558;2024-01-27T08:04:23;17.87;;;6.90;;
17153;SDS011;8692;52.164;7.558;2024-01-27T08:06:51;13.97;;;6.50;;
17153;SDS011;8692;52.164;7.558;2024-01-27T08:09:21;16.43;;;8.20;;
17153;SDS011;8692;52.164;7.558;2024-01-27T08:11:49;14.77;;;7.80;;
17153;SDS011;8692;52.164;7.558;2024-01-27T08:14:19;21.87;;;8.10;;
17153;SDS011;8692;52.164;7.558;2024-01-27T08:16:48;16.40;;;7.83;;
17153;SDS011;8692;52.164;7.558;2024-01-27T08:19:16;18.83;;;8.10;;
17153;SDS011;8692;52.164;7.558;2024-01-27T08:21:47;13.17;;;7.17;;
17153;SDS011;8692;52.164;7.558;2024-01-27T08:24:15;15.90;;;8.10;;
17153;SDS011;8692;52.164;7.558;2024-01-27T08:26:45;13.50;;;7.30;;
17153;SDS011;8692;52.164;7.558;2024-01-27T08:29:14;15.27;;;7.87;;
17153;SDS011;8692;52.164;7.558;2024-01-27T08:31:42;19.23;;;7.70;;
17153;SDS011;8692;52.164;7.558;2024-01-27T08:34:10;22.77;;;8.03;;
17153;SDS011;8692;52.164;7.558;2024-01-27T08:36:40;18.97;;;8.47;;
17153;SDS011;8692;52.164;7.558;2024-01-27T08:39:08;17.93;;;9.80;;
17153;SDS011;8692;52.164;7.558;2024-01-27T08:41:38;17.17;;;9.13;;
17153;SDS011;8692;52.164;7.558;2024-01-27T08:44:08;21.77;;;9.77;;
17153;SDS011;8692;52.164;7.558;2024-01-27T08:46:36;17.93;;;9.00;;
17153;SDS011;8692;52.164;7.558;2024-01-27T08:49:03;18.87;;;8.83;;
17153;SDS011;8692;52.164;7.558;2024-01-27T08:51:32;17.80;;;10.03;;
17153;SDS011;8692;52.164;7.558;2024-01-27T08:54:01;21.70;;;9.27;;
17153;SDS011;8692;52.164;7.558;2024-01-27T08:56:29;17.63;;;9.30;;
17153;SDS011;8692;52.164;7.558;2024-01-27T08:58:57;14.40;;;8.40;;
17153;SDS011;8692;52.164;7.558;2024-01-27T09:01:27;15.60;;;9.20;;
17153;SDS011;8692;52.164;7.558;2024-01-27T09:03:55;19.53;;;9.83;;
17153;SDS011;8692;52.164;7.558;2024-01-27T09:06:23;15.20;;;10.10;;
17153;SDS011;8692;52.164;7.558;2024-01-27T09:08:56;17.13;;;8.53;;
17153;SDS011;8692;52.164;7.558;2024-01-27T09:11:24;19.17;;;9.47;;
17153;SDS011;8692;52.164;7.558;2024-01-27T09:13:53;20.40;;;8.87;;
17153;SDS011;8692;52.164;7.558;2024-01-27T09:16:21;16.77;;;9.47;;
17153;SDS011;8692;52.164;7.558;2024-01-27T09:18:51;15.60;;;8.83;;
17153;SDS011;8692;52.164;7.558;2024-01-27T09:21:19;20.70;;;9.63;;
17153;SDS011;8692;52.164;7.558;2024-01-27T09:23:54;12.43;;;8.37;;
17153;SDS011;8692;52.164;7.558;2024-01-27T09:26:22;14.90;;;8.63;;
17153;SDS011;8692;52.164;7.558;2024-01-27T09:28:50;16.47;;;9.33;;
17153;SDS011;8692;52.164;7.558;2024-01-27T09:31:21;13.93;;;8.20;;
17153;SDS011;8692;52.164;7.558;2024-01-27T09:33:49;17.23;;;8.47;;
17153;SDS011;8692;52.164;7.558;2024-01-27T09:36:20;14.07;;;8.57;;
17153;SDS011;8692;52.164;7.558;2024-01-27T09:38:48;18.97;;;8.60;;
17153;SDS011;8692;52.164;7.558;2024-01-27T09:41:17;18.40;;;8.37;;
17153;SDS011;8692;52.164;7.558;2024-01-27T09:43:45;15.73;;;8.70;;
17153;SDS011;8692;52.164;7.558;2024-01-27T09:46:14;17.50;;;8.60;;
17153;SDS011;8692;52.164;7.558;2024-01-27T09:48:42;15.30;;;7.40;;
17153;SDS011;8692;52.164;7.558;2024-01-27T09:51:13;16.27;;;7.40;;
17153;SDS011;8692;52.164;7.558;2024-01-27T09:53:41;15.17;;;8.20;;
17153;SDS011;8692;52.164;7.558;2024-01-27T09:56:10;13.63;;;7.43;;
17153;SDS011;8692;52.164;7.558;2024-01-27T09:58:44;14.50;;;7.57;;
17153;SDS011;8692;52.164;7.558;2024-01-27T10:01:13;15.27;;;7.90;;
17153;SDS011;8692;52.164;7.558;2024-01-27T10:03:46;14.53;;;6.97;;
17153;SDS011;8692;52.164;7.558;2024-01-27T10:06:16;17.07;;;7.40;;
17153;SDS011;8692;52.164;7.558;2024-01-27T10:08:45;18.43;;;7.17;;
17153;SDS011;8692;52.164;7.558;2024-01-27T10:11:20;12.30;;;7.27;;
17153;SDS011;8692;52.164;7.558;2024-01-27T10:13:53;13.83;;;7.03;;
17153;SDS011;8692;52.164;7.558;2024-01-27T10:16:25;13.17;;;6.60;;
17153;SDS011;8692;52.164;7.558;2024-01-27T10:19:00;12.53;;;5.67;;
17153;SDS011;8692;52.164;7.558;2024-01-27T10:21:30;16.30;;;7.73;;
17153;SDS011;8692;52.164;7.558;2024-01-27T10:23:59;13.43;;;5.83;;
17153;SDS011;8692;52.164;7.558;2024-01-27T10:26:30;16.00;;;6.07;;
17153;SDS011;8692;52.164;7.558;2024-01-27T10:28:59;13.97;;;6.37;;
17153;SDS011;8692;52.164;7.558;2024-01-27T10:31:28;14.47;;;8.17;;
17153;SDS011;8692;52.164;7.558;2024-01-27T10:33:57;14.60;;;5.87;;
17153;SDS011;8692;52.164;7.558;2024-01-27T10:36:37;12.77;;;6.50;;
17153;SDS011;8692;52.164;7.558;2024-01-27T10:39:17;17.80;;;6.13;;
17153;SDS011;8692;52.164;7.558;2024-01-27T10:41:48;13.27;;;5.97;;
17153;SDS011;8692;52.164;7.558;2024-01-27T10:44:17;13.93;;;6.40;;
17153;SDS011;8692;52.164;7.558;2024-01-27T10:46:47;18.07;;;8.37;;
17153;SDS011;8692;52.164;7.558;2024-01-27T10:49:17;17.07;;;6.27;;
17153;SDS011;8692;52.164;7.558;2024-01-27T10:51:49;12.23;;;5.97;;
17153;SDS011;8692;52.164;7.558;2024-01-27T10:54:23;12.77;;;6.37;;
17153;SDS011;8692;52.164;7.558;2024-01-27T10:56:53;15.43;;;6.07;;
17153;SDS011;8692;52.164;7.558;2024-01-27T10:59:23;15.50;;;6.47;;
17153;SDS011;8692;52.164;7.558;2024-01-27T11:01:54;16.80;;;5.63;;
17153;SDS011;8692;52.164;7.558;2024-01-27T11:04:23;10.37;;;5.53;;
17153;SDS011;8692;52.164;7.558;2024-01-27T11:06:54;11.43;;;5.63;;
17153;SDS011;8692;52.164;7.558;2024-01-27T11:09:24;15.53;;;6.30;;
17153;SDS011;8692;52.164;7.558;2024-01-27T11:11:52;15.67;;;6.03;;
17153;SDS011;8692;52.164;7.558;2024-01-27T11:14:21;12.50;;;6.17;;
17153;SDS011;8692;52.164;7.558;2024-01-27T11:16:53;8.90;;;5.43;;
17153;SDS011;8692;52.164;7.558;2024-01-27T11:19:22;14.33;;;5.47;;
17153;SDS011;8692;52.164;7.558;2024-01-27T11:22:00;17.00;;;6.37;;
17153;SDS011;8692;52.164;7.558;2024-01-27T11:24:29;14.77;;;5.30;;
17153;SDS011;8692;52.164;7.558;2024-01-27T11:27:00;16.83;;;5.30;;
17153;SDS011;8692;52.164;7.558;2024-01-27T11:29:29;15.60;;;5.90;;
17153;SDS011;8692;52.164;7.558;2024-01-27T11:32:00;7.77;;;4.83;;
17153;SDS011;8692;52.164;7.558;2024-01-27T11:34:40;16.03;;;5.27;;
17153;SDS011;8692;52.164;7.558;2024-01-27T11:37:14;10.07;;;5.77;;
17153;SDS011;8692;52.164;7.558;2024-01-27T11:39:42;16.10;;;6.20;;
17153;SDS011;8692;52.164;7.558;2024-01-27T11:42:12;10.57;;;4.93;;
17153;SDS011;8692;52.164;7.558;2024-01-27T11:44:41;16.93;;;5.40;;
17153;SDS011;8692;52.164;7.558;2024-01-27T11:47:13;7.77;;;4.40;;
17153;SDS011;8692;52.164;7.558;2024-01-27T11:49:42;13.13;;;4.83;;
17153;SDS011;8692;52.164;7.558;2024-01-27T11:52:11;13.70;;;4.40;;
17153;SDS011;8692;52.164;7.558;2024-01-27T11:54:40;11.00;;;4.50;;
17153;SDS011;8692;52.164;7.558;2024-01-27T11:57:08;15.93;;;4.90;;
17153;SDS011;8692;52.164;7.558;2024-01-27T11:59:36;11.10;;;4.57;;
17153;SDS011;8692;52.164;7.558;2024-01-27T12:02:04;12.77;;;4.50;;
17153;SDS011;8692;52.164;7.558;2024-01-27T12:04:33;15.27;;;4.27;;
17153;SDS011;8692;52.164;7.558;2024-01-27T12:07:02;10.00;;;4.07;;
17153;SDS011;8692;52.164;7.558;2024-01-27T12:09:30;11.23;;;3.70;;
17153;SDS011;8692;52.164;7.558;2024-01-27T12:12:00;11.20;;;4.03;;
17153;SDS011;8692;52.164;7.558;2024-01-27T12:14:37;15.03;;;4.27;;
17153;SDS011;8692;52.164;7.558;2024-01-27T12:17:07;10.87;;;3.37;;
17153;SDS011;8692;52.164;7.558;2024-01-27T12:19:36;14.23;;;4.23;;
17153;SDS011;8692;52.164;7.558;2024-01-27T12:22:05;9.97;;;4.07;;
17153;SDS011;8692;52.164;7.558;2024-01-27T12:24:46;8.30;;;3.50;;
17153;SDS011;8692;52.164;7.558;2024-01-27T12:27:16;9.37;;;3.47;;
17153;SDS011;8692;52.164;7.558;2024-01-27T12:29:46;10.87;;;3.47;;
17153;SDS011;8692;52.164;7.558;2024-01-27T12:32:15;13.40;;;3.80;;
17153;SDS011;8692;52.164;7.558;2024-01-27T12:34:43;10.77;;;3.70;;
17153;SDS011;8692;52.164;7.558;2024-01-27T12:37:14;17.17;;;4.20;;
17153;SDS011;8692;52.164;7.558;2024-01-27T12:39:43;6.77;;;3.20;;
17153;SDS011;8692;52.164;7.558;2024-01-27T12:42:11;10.87;;;3.80;;
17153;SDS011;8692;52.164;7.558;2024-01-27T12:44:41;10.67;;;3.50;;
17153;SDS011;8692;52.164;7.558;2024-01-27T12:47:09;13.47;;;4.60;;
17153;SDS011;8692;52.164;7.558;2024-01-27T12:49:37;10.47;;;3.43;;
17153;SDS011;8692;52.164;7.558;2024-01-27T12:52:05;14.43;;;3.67;;
17153;SDS011;8692;52.164;7.558;2024-01-27T12:54:33;8.53;;;3.90;;
17153;SDS011;8692;52.164;7.558;2024-01-27T12:57:01;11.00;;;4.00;;
17153;SDS011;8692;52.164;7.558;2024-01-27T12:59:29;11.67;;;4.20;;
17153;SDS011;8692;52.164;7.558;2024-01-27T13:01:59;16.53;;;5.57;;
17153;SDS011;8692;52.164;7.558;2024-01-27T13:04:27;9.70;;;3.63;;
17153;SDS011;8692;52.164;7.558;2024-01-27T13:06:55;7.53;;;3.70;;
17153;SDS011;8692;52.164;7.558;2024-01-27T13:09:24;9.73;;;3.67;;
17153;SDS011;8692;52.164;7.558;2024-01-27T13:11:52;12.47;;;3.53;;
17153;SDS011;8692;52.164;7.558;2024-01-27T13:14:20;13.10;;;4.00;;
17153;SDS011;8692;52.164;7.558;2024-01-27T13:16:48;12.43;;;3.97;;
17153;SDS011;8692;52.164;7.558;2024-01-27T13:19:21;15.20;;;4.80;;
17153;SDS011;8692;52.164;7.558;2024-01-27T13:21:49;13.17;;;4.00;;
17153;SDS011;8692;52.164;7.558;2024-01-27T13:24:17;13.67;;;4.47;;
17153;SDS011;8692;52.164;7.558;2024-01-27T13:26:46;7.60;;;3.30;;
17153;SDS011;8692;52.164;7.558;2024-01-27T13:29:14;11.40;;;3.80;;
17153;SDS011;8692;52.164;7.558;2024-01-27T13:31:42;16.23;;;4.20;;
17153;SDS011;8692;52.164;7.558;2024-01-27T13:34:10;15.90;;;4.10;;
17153;SDS011;8692;52.164;7.558;2024-01-27T13:36:40;10.27;;;3.50;;
17153;SDS011;8692;52.164;7.558;2024-01-27T13:39:08;9.30;;;3.70;;
17153;SDS011;8692;52.164;7.558;2024-01-27T13:41:36;11.10;;;3.90;;
17153;SDS011;8692;52.164;7.558;2024-01-27T13:44:04;14.27;;;4.23;;
17153;SDS011;8692;52.164;7.558;2024-01-27T13:46:33;11.53;;;4.57;;
17153;SDS011;8692;52.164;7.558;2024-01-27T13:49:01;7.97;;;3.70;;
17153;SDS011;8692;52.164;7.558;2024-01-27T13:51:29;15.03;;;3.90;;
17153;SDS011;8692;52.164;7.558;2024-01-27T13:53:58;7.57;;;3.87;;
17153;SDS011;8692;52.164;7.558;2024-01-27T13:56:26;7.90;;;3.30;;
17153;SDS011;8692;52.164;7.558;2024-01-27T13:58:58;11.50;;;3.80;;
17153;SDS011;8692;52.164;7.558;2024-01-27T14:01:26;11.23;;;3.17;;
17153;SDS011;8692;52.164;7.558;2024-01-27T14:03:54;10.53;;;4.30;;
17153;SDS011;8692;52.164;7.558;2024-01-27T14:06:23;11.87;;;4.20;;
17153;SDS011;8692;52.164;7.558;2024-01-27T14:08:51;13.73;;;4.17;;
17153;SDS011;8692;52.164;7.558;2024-01-27T14:11:21;10.97;;;4.33;;
17153;SDS011;8692;52.164;7.558;2024-01-27T14:13:49;9.53;;;3.73;;
17153;SDS011;8692;52.164;7.558;2024-01-27T14:16:17;11.60;;;3.80;;
17153;SDS011;8692;52.164;7.558;2024-01-27T14:18:47;11.97;;;4.60;;
17153;SDS011;8692;52.164;7.558;2024-01-27T14:21:15;12.97;;;4.47;;
17153;SDS011;8692;52.164;7.558;2024-01-27T14:23:43;10.23;;;4.00;;
17153;SDS011;8692;52.164;7.558;2024-01-27T14:26:11;10.20;;;3.50;;
17153;SDS011;8692;52.164;7.558;2024-01-27T14:28:43;12.87;;;3.67;;
17153;SDS011;8692;52.164;7.558;2024-01-27T14:31:12;8.27;;;3.87;;
17153;SDS011;8692;52.164;7.558;2024-01-27T14:33:41;14.10;;;4.43;;
17153;SDS011;8692;52.164;7.558;2024-01-27T14:36:09;9.03;;;3.73;;
17153;SDS011;8692;52.164;7.558;2024-01-27T14:38:38;12.37;;;4.40;;
17153;SDS011;8692;52.164;7.558;2024-01-27T14:41:07;10.07;;;4.30;;
17153;SDS011;8692;52.164;7.558;2024-01-27T14:43:35;11.50;;;4.53;;
17153;SDS011;8692;52.164;7.558;2024-01-27T14:46:06;9.00;;;3.67;;
17153;SDS011;8692;52.164;7.558;2024-01-27T14:48:34;17.93;;;6.47;;
17153;SDS011;8692;52.164;7.558;2024-01-27T14:51:02;12.43;;;4.47;;
17153;SDS011;8692;52.164;7.558;2024-01-27T14:53:32;11.77;;;4.17;;
17153;SDS011;8692;52.164;7.558;2024-01-27T14:56:00;13.30;;;5.33;;
17153;SDS011;8692;52.164;7.558;2024-01-27T14:58:29;7.87;;;3.10;;
17153;SDS011;8692;52.164;7.558;2024-01-27T15:00:57;9.43;;;3.70;;